Wildrose, North Dakota
Current Conditions -  °F | °C
As of 8:15 PM on Monday 22 Dec 2014 (Local Time) from KD60 Reporting Station
Haze Haze  
Wind Chill: 15°   Ceiling: 400
Heat Index: 27°   Visibility: 3mi
Dew Point: 27°   Wind: 14mph
Humidity: 100%   Direction: 350°N
Pressure: 29.84"   Gusts: NA
Location:  48.63°N, 103.18°W
Report Text: KD60 230215Z AUTO 35012KT 3SM BR OVC004 M03/M03 A2984 RMK AO2
Loading
Personal Weather Stations






























Interactive Weather Map New forecast layout! Learn more

10-Day Weather Forecast

Advertisements
Track Severe Weather on mobile